Time,TemperatureF,DewpointF,PressureIn,WindDirection,WindDirectionDegrees,WindSpeedMPH,WindSpeedGustMPH,Humidity,HourlyPrecipIn,Conditions,Clouds,dailyrainin,SoftwareType,DateUTC
2013-05-16 00:02:00,70.1,65.0,29.95,WSW,239,10.0,11.0,83,0.00,,,0.00,weatherlink.com 1.10,2013-05-16 04:02:00,
2013-05-16 00:17:00,70.0,65.0,29.95,SSW,200,7.0,11.0,84,0.00,,,0.00,weatherlink.com 1.10,2013-05-16 04:17:00,
2013-05-16 00:32:00,70.0,65.0,29.95,SW,235,7.0,12.0,84,0.00,,,0.00,weatherlink.com 1.10,2013-05-16 04:32:00,
2013-05-16 00:47:00,69.9,65.0,29.94,WSW,248,1.0,11.0,84,0.00,,,0.00,weatherlink.com 1.10,2013-05-16 04:47:00,
2013-05-16 01:02:00,69.5,64.0,29.95,SW,231,5.0,10.0,83,0.00,,,0.00,weatherlink.com 1.10,2013-05-16 05:02:00,
2013-05-16 01:17:00,69.3,64.0,29.95,SW,228,8.0,10.0,83,0.00,,,0.00,weatherlink.com 1.10,2013-05-16 05:17:00,
2013-05-16 01:32:00,69.1,64.0,29.94,SW,234,8.0,8.0,83,0.00,,,0.00,weatherlink.com 1.10,2013-05-16 05:32:00,
2013-05-16 01:47:00,69.0,64.0,29.94,WSW,237,6.0,8.0,84,0.00,,,0.00,weatherlink.com 1.10,2013-05-16 05:47:00,
2013-05-16 02:03:00,68.9,64.0,29.93,SW,232,2.0,7.0,85,0.00,,,0.00,weatherlink.com 1.10,2013-05-16 06:03:00,
2013-05-16 02:18:00,68.8,64.0,29.93,SW,226,5.0,9.0,84,0.00,,,0.00,weatherlink.com 1.10,2013-05-16 06:18:00,
2013-05-16 02:33:00,68.8,64.0,29.93,WSW,239,8.0,9.0,84,0.00,,,0.00,weatherlink.com 1.10,2013-05-16 06:33:00,
2013-05-16 02:48:00,68.7,64.0,29.93,SW,236,3.0,9.0,84,0.00,,,0.00,weatherlink.com 1.10,2013-05-16 06:48:00,
2013-05-16 03:03:00,68.4,63.0,29.93,SW,217,3.0,6.0,84,0.00,,,0.00,weatherlink.com 1.10,2013-05-16 07:03:00,
2013-05-16 03:18:00,68.3,63.0,29.92,WSW,242,5.0,7.0,84,0.00,,,0.00,weatherlink.com 1.10,2013-05-16 07:18:00,
2013-05-16 03:33:00,68.0,63.0,29.93,SW,225,2.0,7.0,84,0.00,,,0.00,weatherlink.com 1.10,2013-05-16 07:33:00,
2013-05-16 03:48:00,67.9,63.0,29.93,WSW,239,3.0,7.0,85,0.00,,,0.00,weatherlink.com 1.10,2013-05-16 07:48:00,
2013-05-16 04:03:00,68.0,63.0,29.92,SW,217,2.0,7.0,85,0.00,,,0.00,weatherlink.com 1.10,2013-05-16 08:03:00,
2013-05-16 04:18:00,68.2,64.0,29.92,WSW,239,4.0,9.0,86,0.00,,,0.00,weatherlink.com 1.10,2013-05-16 08:18:00,
2013-05-16 04:33:00,68.0,64.0,29.92,SW,222,4.0,8.0,86,0.00,,,0.00,weatherlink.com 1.10,2013-05-16 08:33:00,
2013-05-16 04:48:00,67.9,63.0,29.93,SW,232,8.0,10.0,85,0.00,,,0.00,weatherlink.com 1.10,2013-05-16 08:48:00,
2013-05-16 05:03:00,68.0,64.0,29.92,SW,224,6.0,8.0,86,0.00,,,0.00,weatherlink.com 1.10,2013-05-16 09:03:00,
2013-05-16 05:18:00,67.9,64.0,29.92,SW,224,6.0,9.0,86,0.00,,,0.00,weatherlink.com 1.10,2013-05-16 09:18:00,
2013-05-16 05:33:00,67.8,64.0,29.92,SW,219,9.0,11.0,87,0.00,,,0.00,weatherlink.com 1.10,2013-05-16 09:33:00,
2013-05-16 05:48:00,67.8,64.0,29.92,SW,236,9.0,11.0,86,0.00,,,0.00,weatherlink.com 1.10,2013-05-16 09:48:00,
2013-05-16 06:03:00,67.5,63.0,29.93,SW,236,7.0,11.0,85,0.00,,,0.00,weatherlink.com 1.10,2013-05-16 10:03:00,
2013-05-16 06:18:00,67.5,63.0,29.93,WSW,244,8.0,11.0,86,0.00,,,0.00,weatherlink.com 1.10,2013-05-16 10:18:00,
2013-05-16 06:33:00,67.5,64.0,29.94,SW,231,5.0,12.0,87,0.00,,,0.00,weatherlink.com 1.10,2013-05-16 10:33:00,
2013-05-16 06:48:00,67.7,63.0,29.94,SSW,212,8.0,11.0,85,0.00,,,0.00,weatherlink.com 1.10,2013-05-16 10:48:00,
2013-05-16 07:03:00,67.6,63.0,29.94,SW,221,9.0,11.0,86,0.00,,,0.00,weatherlink.com 1.10,2013-05-16 11:03:00,
2013-05-16 07:18:00,68.0,63.0,29.95,SW,231,5.0,11.0,85,0.00,,,0.00,weatherlink.com 1.10,2013-05-16 11:18:00,
2013-05-16 07:33:00,68.6,64.0,29.95,WSW,238,6.0,10.0,84,0.00,,,0.00,weatherlink.com 1.10,2013-05-16 11:33:00,
2013-05-16 07:48:00,69.3,64.0,29.96,SW,221,4.0,8.0,82,0.00,,,0.00,weatherlink.com 1.10,2013-05-16 11:48:00,
2013-05-16 08:05:00,70.0,64.0,29.96,SW,228,6.0,10.0,82,0.00,,,0.00,weatherlink.com 1.10,2013-05-16 12:05:00,
2013-05-16 08:18:00,70.7,65.0,29.96,SW,226,4.0,7.0,81,0.00,,,0.00,weatherlink.com 1.10,2013-05-16 12:18:00,
2013-05-16 08:33:00,71.6,65.0,29.96,SW,215,6.0,7.0,80,0.00,,,0.00,weatherlink.com 1.10,2013-05-16 12:33:00,
2013-05-16 08:49:00,72.0,65.0,29.96,SW,219,8.0,8.0,78,0.00,,,0.00,weatherlink.com 1.10,2013-05-16 12:49:00,
2013-05-16 09:03:00,73.0,65.0,29.96,SW,236,6.0,8.0,77,0.00,,,0.00,weatherlink.com 1.10,2013-05-16 13:03:00,
2013-05-16 09:19:00,73.9,65.0,29.96,SW,225,6.0,8.0,74,0.00,,,0.00,weatherlink.com 1.10,2013-05-16 13:19:00,
2013-05-16 09:33:00,74.3,66.0,29.96,WSW,239,6.0,7.0,74,0.00,,,0.00,weatherlink.com 1.10,2013-05-16 13:33:00,
2013-05-16 09:49:00,75.0,65.0,29.96,SW,218,3.0,7.0,72,0.00,,,0.00,weatherlink.com 1.10,2013-05-16 13:49:00,
2013-05-16 10:03:00,75.8,66.0,29.96,SW,233,4.0,8.0,71,0.00,,,0.00,weatherlink.com 1.10,2013-05-16 14:03:00,
2013-05-16 10:19:00,75.5,66.0,29.96,SW,218,6.0,8.0,72,0.00,,,0.00,weatherlink.com 1.10,2013-05-16 14:19:00,
2013-05-16 10:33:00,76.8,66.0,29.97,WSW,238,5.0,8.0,70,0.00,,,0.00,weatherlink.com 1.10,2013-05-16 14:33:00,
2013-05-16 10:48:00,77.4,66.0,29.97,SW,230,9.0,10.0,68,0.00,,,0.00,weatherlink.com 1.10,2013-05-16 14:48:00,
2013-05-16 11:03:00,77.4,67.0,29.97,SSW,212,4.0,8.0,70,0.00,,,0.00,weatherlink.com 1.10,2013-05-16 15:03:00,
2013-05-16 11:18:00,78.7,68.0,29.97,SW,218,4.0,6.0,69,0.00,,,0.00,weatherlink.com 1.10,2013-05-16 15:18:00,
2013-05-16 11:33:00,79.8,67.0,29.97,SSW,201,0.0,6.0,66,0.00,,,0.00,weatherlink.com 1.10,2013-05-16 15:33:00,
2013-05-16 11:48:00,81.4,67.0,29.96,WSW,246,4.0,6.0,61,0.00,,,0.00,weatherlink.com 1.10,2013-05-16 15:48:00,
2013-05-16 12:03:00,81.0,67.0,29.97,SW,221,2.0,7.0,63,0.00,,,0.00,weatherlink.com 1.10,2013-05-16 16:03:00,
2013-05-16 12:18:00,81.7,67.0,29.96,SSW,212,1.0,4.0,61,0.00,,,0.00,weatherlink.com 1.10,2013-05-16 16:18:00,
2013-05-16 12:33:00,82.9,67.0,29.96,West,276,1.0,3.0,59,0.00,,,0.00,weatherlink.com 1.10,2013-05-16 16:33:00,
2013-05-16 12:48:00,83.4,68.0,29.95,SW,228,4.0,4.0,60,0.00,,,0.00,weatherlink.com 1.10,2013-05-16 16:48:00,
2013-05-16 13:03:00,85.0,69.0,29.95,WNW,298,2.0,3.0,59,0.00,,,0.00,weatherlink.com 1.10,2013-05-16 17:03:00,
2013-05-16 13:18:00,85.6,66.0,29.95,SSW,212,2.0,5.0,53,0.00,,,0.00,weatherlink.com 1.10,2013-05-16 17:18:00,
2013-05-16 13:33:00,86.6,66.0,29.95,WNW,290,0.0,5.0,51,0.00,,,0.00,weatherlink.com 1.10,2013-05-16 17:33:00,
2013-05-16 13:48:00,87.1,66.0,29.94,NNE,18,0.0,4.0,49,0.00,,,0.00,weatherlink.com 1.10,2013-05-16 17:48:00,
2013-05-16 14:03:00,86.8,66.0,29.94,WSW,253,3.0,6.0,50,0.00,,,0.00,weatherlink.com 1.10,2013-05-16 18:03:00,
2013-05-16 14:18:00,87.0,67.0,29.94,SW,233,0.0,4.0,51,0.00,,,0.00,weatherlink.com 1.10,2013-05-16 18:18:00,
2013-05-16 14:33:00,87.3,68.0,29.93,WSW,257,1.0,5.0,52,0.00,,,0.00,weatherlink.com 1.10,2013-05-16 18:33:00,
2013-05-16 14:48:00,88.0,67.0,29.93,WNW,284,0.0,5.0,50,0.00,,,0.00,weatherlink.com 1.10,2013-05-16 18:48:00,
2013-05-16 15:03:00,88.8,67.0,29.93,WNW,283,0.0,3.0,49,0.00,,,0.00,weatherlink.com 1.10,2013-05-16 19:03:00,
2013-05-16 15:18:00,89.1,66.0,29.92,SW,219,4.0,5.0,47,0.00,,,0.00,weatherlink.com 1.10,2013-05-16 19:18:00,
2013-05-16 15:34:00,87.5,65.0,29.92,SW,231,3.0,6.0,47,0.00,,,0.00,weatherlink.com 1.10,2013-05-16 19:34:00,
2013-05-16 15:49:00,86.1,65.0,29.92,WNW,288,2.0,8.0,49,0.00,,,0.00,weatherlink.com 1.10,2013-05-16 19:49:00,
2013-05-16 16:04:00,87.4,63.0,29.91,SW,229,1.0,7.0,44,0.00,,,0.00,weatherlink.com 1.10,2013-05-16 20:04:00,
2013-05-16 16:19:00,88.4,61.0,29.91,SW,235,7.0,8.0,40,0.00,,,0.00,weatherlink.com 1.10,2013-05-16 20:19:00,
2013-05-16 16:34:00,83.2,70.0,29.91,SSW,203,7.0,12.0,64,0.00,,,0.00,weatherlink.com 1.10,2013-05-16 20:34:00,
2013-05-16 16:49:00,79.1,70.0,29.90,SSW,210,7.0,11.0,74,0.00,,,0.00,weatherlink.com 1.10,2013-05-16 20:49:00,
2013-05-16 17:04:00,78.4,70.0,29.90,SSW,211,5.0,11.0,74,0.00,,,0.00,weatherlink.com 1.10,2013-05-16 21:04:00,
2013-05-16 17:19:00,78.3,69.0,29.91,SW,224,10.0,13.0,74,0.00,,,0.00,weatherlink.com 1.10,2013-05-16 21:19:00,
2013-05-16 17:34:00,78.0,70.0,29.91,SW,221,6.0,10.0,75,0.00,,,0.00,weatherlink.com 1.10,2013-05-16 21:34:00,
2013-05-16 17:49:00,77.8,70.0,29.91,SSW,207,6.0,8.0,76,0.00,,,0.00,weatherlink.com 1.10,2013-05-16 21:49:00,
2013-05-16 18:04:00,77.6,70.0,29.91,SW,231,5.0,7.0,76,0.00,,,0.00,weatherlink.com 1.10,2013-05-16 22:04:00,
2013-05-16 18:19:00,77.7,70.0,29.91,WSW,245,6.0,7.0,76,0.00,,,0.00,weatherlink.com 1.10,2013-05-16 22:19:00,
2013-05-16 18:34:00,77.3,70.0,29.91,WSW,238,6.0,6.0,77,0.00,,,0.00,weatherlink.com 1.10,2013-05-16 22:34:00,
2013-05-16 18:49:00,77.1,69.0,29.91,SW,233,6.0,7.0,76,0.00,,,0.00,weatherlink.com 1.10,2013-05-16 22:49:00,
2013-05-16 19:04:00,76.7,69.0,29.92,SW,233,4.0,4.0,77,0.00,,,0.00,weatherlink.com 1.10,2013-05-16 23:04:00,
2013-05-16 19:19:00,76.5,69.0,29.92,WSW,238,2.0,4.0,78,0.00,,,0.00,weatherlink.com 1.10,2013-05-16 23:19:00,
2013-05-16 19:34:00,75.9,69.0,29.93,SW,232,2.0,4.0,79,0.00,,,0.00,weatherlink.com 1.10,2013-05-16 23:34:00,
2013-05-16 19:49:00,75.7,69.0,29.93,WSW,238,0.0,2.0,79,0.00,,,0.00,weatherlink.com 1.10,2013-05-16 23:49:00,
2013-05-16 20:04:00,75.4,69.0,29.93,WSW,250,0.0,0.0,80,0.00,,,0.00,weatherlink.com 1.10,2013-05-17 00:04:00,
2013-05-16 20:19:00,75.4,69.0,29.94,WSW,238,2.0,3.0,80,0.00,,,0.00,weatherlink.com 1.10,2013-05-17 00:19:00,
2013-05-16 20:34:00,75.3,69.0,29.94,WSW,242,1.0,2.0,81,0.00,,,0.00,weatherlink.com 1.10,2013-05-17 00:34:00,
2013-05-16 20:49:00,74.6,69.0,29.95,SW,236,1.0,2.0,83,0.00,,,0.00,weatherlink.com 1.10,2013-05-17 00:49:00,
2013-05-16 21:04:00,74.2,69.0,29.95,SW,231,2.0,2.0,84,0.00,,,0.00,weatherlink.com 1.10,2013-05-17 01:04:00,
2013-05-16 21:19:00,74.0,69.0,29.96,SW,226,2.0,2.0,84,0.00,,,0.00,weatherlink.com 1.10,2013-05-17 01:19:00,
2013-05-16 21:34:00,73.7,69.0,29.96,WSW,242,0.0,0.0,84,0.00,,,0.00,weatherlink.com 1.10,2013-05-17 01:34:00,
2013-05-16 21:49:00,73.7,69.0,29.98,SW,233,2.0,4.0,86,0.00,,,0.00,weatherlink.com 1.10,2013-05-17 01:49:00,
2013-05-16 22:04:00,73.2,69.0,29.98,West,273,0.0,2.0,86,0.00,,,0.00,weatherlink.com 1.10,2013-05-17 02:04:00,
2013-05-16 22:19:00,73.5,70.0,29.98,SW,233,6.0,7.0,87,0.00,,,0.00,weatherlink.com 1.10,2013-05-17 02:19:00,
2013-05-16 22:34:00,73.8,69.0,29.98,SW,221,3.0,5.0,85,0.00,,,0.00,weatherlink.com 1.10,2013-05-17 02:34:00,
2013-05-16 22:49:00,74.1,69.0,29.98,SW,231,6.0,7.0,84,0.00,,,0.00,weatherlink.com 1.10,2013-05-17 02:49:00,
2013-05-16 23:04:00,73.4,69.0,29.98,SW,228,5.0,8.0,85,0.00,,,0.00,weatherlink.com 1.10,2013-05-17 03:04:00,
2013-05-16 23:19:00,73.7,68.0,29.98,SW,233,3.0,9.0,83,0.00,,,0.00,weatherlink.com 1.10,2013-05-17 03:19:00,
2013-05-16 23:34:00,73.6,67.0,29.98,West,269,1.0,4.0,81,0.00,,,0.00,weatherlink.com 1.10,2013-05-17 03:34:00,
2013-05-16 23:49:00,74.0,68.0,29.97,West,262,2.0,6.0,81,0.00,,,0.00,weatherlink.com 1.10,2013-05-17 03:49:00,